sensor_id;sensor_type;location;lat;lon;timestamp;noise_LAeq;noise_LA_min;noise_LA_max;noise_LA01;noise_LA95
46749;Laerm;33775;47.992;11.864;2022-09-09T00:00:11;40.24;38.81;41.38;;
46749;Laerm;33775;47.992;11.864;2022-09-09T00:02:36;40.25;38.95;41.53;;
46749;Laerm;33775;47.992;11.864;2022-09-09T00:05:14;40.33;38.95;41.46;;
46749;Laerm;33775;47.992;11.864;2022-09-09T00:07:44;40.39;39.08;41.53;;
46749;Laerm;33775;47.992;11.864;2022-09-09T00:18:05;40.62;39.21;41.68;;
46749;Laerm;33775;47.992;11.864;2022-09-09T00:28:20;40.12;38.74;41.38;;
46749;Laerm;33775;47.992;11.864;2022-09-09T00:30:47;40.11;38.67;41.22;;
46749;Laerm;33775;47.992;11.864;2022-09-09T00:33:13;40.08;38.52;41.30;;
46749;Laerm;33775;47.992;11.864;2022-09-09T00:35:44;40.08;38.52;41.30;;
46749;Laerm;33775;47.992;11.864;2022-09-09T00:38:14;40.03;38.37;41.22;;
46749;Laerm;33775;47.992;11.864;2022-09-09T00:40:50;40.06;38.67;41.30;;
46749;Laerm;33775;47.992;11.864;2022-09-09T00:48:13;39.98;38.47;41.38;;
46749;Laerm;33775;47.992;11.864;2022-09-09T00:50:49;39.95;38.52;41.22;;
46749;Laerm;33775;47.992;11.864;2022-09-09T00:58:20;39.88;38.52;41.30;;
46749;Laerm;33775;47.992;11.864;2022-09-09T01:00:52;39.90;38.32;41.14;;
46749;Laerm;33775;47.992;11.864;2022-09-09T01:03:37;39.94;38.32;41.22;;
46749;Laerm;33775;47.992;11.864;2022-09-09T01:06:14;39.96;38.37;41.14;;
46749;Laerm;33775;47.992;11.864;2022-09-09T01:11:22;39.98;38.52;41.22;;
46749;Laerm;33775;47.992;11.864;2022-09-09T01:13:49;39.95;38.21;41.22;;
46749;Laerm;33775;47.992;11.864;2022-09-09T01:16:18;39.94;38.32;41.14;;
46749;Laerm;33775;47.992;11.864;2022-09-09T01:18:44;39.95;38.52;41.22;;
46749;Laerm;33775;47.992;11.864;2022-09-09T01:23:56;39.98;38.52;41.22;;
46749;Laerm;33775;47.992;11.864;2022-09-09T01:26:37;40.00;38.52;41.22;;
46749;Laerm;33775;47.992;11.864;2022-09-09T01:29:03;39.96;38.52;41.22;;
46749;Laerm;33775;47.992;11.864;2022-09-09T01:31:39;39.98;38.52;41.22;;
46749;Laerm;33775;47.992;11.864;2022-09-09T01:34:12;39.97;38.32;41.14;;
46749;Laerm;33775;47.992;11.864;2022-09-09T01:36:49;39.94;38.21;41.14;;
46749;Laerm;33775;47.992;11.864;2022-09-09T01:39:17;39.92;38.37;41.38;;
46749;Laerm;33775;47.992;11.864;2022-09-09T01:41:43;39.87;38.21;41.14;;
46749;Laerm;33775;47.992;11.864;2022-09-09T01:44:08;39.81;38.05;41.14;;
46749;Laerm;33775;47.992;11.864;2022-09-09T01:46:34;39.82;38.21;41.06;;
46749;Laerm;33775;47.992;11.864;2022-09-09T01:49:00;39.85;38.05;41.14;;
46749;Laerm;33775;47.992;11.864;2022-09-09T01:51:26;39.81;38.02;41.14;;
46749;Laerm;33775;47.992;11.864;2022-09-09T01:53:52;39.77;38.21;40.98;;
46749;Laerm;33775;47.992;11.864;2022-09-09T01:59:44;39.82;38.21;41.14;;
46749;Laerm;33775;47.992;11.864;2022-09-09T02:04:11;39.68;37.88;41.06;;
46749;Laerm;33775;47.992;11.864;2022-09-09T02:06:43;39.72;38.02;41.06;;
46749;Laerm;33775;47.992;11.864;2022-09-09T02:09:10;39.75;38.05;41.14;;
46749;Laerm;33775;47.992;11.864;2022-09-09T02:11:37;39.89;38.37;41.30;;
46749;Laerm;33775;47.992;11.864;2022-09-09T02:14:07;39.90;38.37;41.14;;
46749;Laerm;33775;47.992;11.864;2022-09-09T02:16:35;39.92;38.37;41.14;;
46749;Laerm;33775;47.992;11.864;2022-09-09T02:19:06;39.94;38.21;41.22;;
46749;Laerm;33775;47.992;11.864;2022-09-09T02:21:33;39.91;38.21;41.22;;
46749;Laerm;33775;47.992;11.864;2022-09-09T02:24:03;39.87;38.37;41.22;;
46749;Laerm;33775;47.992;11.864;2022-09-09T02:26:29;39.88;38.05;41.14;;
46749;Laerm;33775;47.992;11.864;2022-09-09T02:28:55;39.91;38.37;41.22;;
46749;Laerm;33775;47.992;11.864;2022-09-09T02:31:23;39.93;38.21;41.14;;
46749;Laerm;33775;47.992;11.864;2022-09-09T02:33:54;39.93;38.37;41.30;;
46749;Laerm;33775;47.992;11.864;2022-09-09T02:36:21;39.93;38.21;41.22;;
46749;Laerm;33775;47.992;11.864;2022-09-09T02:38:48;39.95;38.37;41.22;;
46749;Laerm;33775;47.992;11.864;2022-09-09T02:41:16;39.97;38.21;41.30;;
46749;Laerm;33775;47.992;11.864;2022-09-09T02:43:41;39.99;38.37;41.30;;
46749;Laerm;33775;47.992;11.864;2022-09-09T02:48:45;40.05;38.52;41.30;;
46749;Laerm;33775;47.992;11.864;2022-09-09T02:53:47;40.04;38.52;41.30;;
46749;Laerm;33775;47.992;11.864;2022-09-09T02:56:16;40.04;38.67;41.30;;
46749;Laerm;33775;47.992;11.864;2022-09-09T02:58:42;40.11;38.67;41.30;;
46749;Laerm;33775;47.992;11.864;2022-09-09T03:01:07;40.16;38.67;41.38;;
46749;Laerm;33775;47.992;11.864;2022-09-09T03:03:33;40.20;38.81;41.30;;
46749;Laerm;33775;47.992;11.864;2022-09-09T03:05:58;40.22;38.67;41.38;;
46749;Laerm;33775;47.992;11.864;2022-09-09T03:08:24;40.24;38.67;41.38;;
46749;Laerm;33775;47.992;11.864;2022-09-09T03:10:49;40.30;38.95;41.38;;
46749;Laerm;33775;47.992;11.864;2022-09-09T03:13:14;40.35;39.08;41.46;;
46749;Laerm;33775;47.992;11.864;2022-09-09T03:15:40;40.43;39.08;41.53;;
46749;Laerm;33775;47.992;11.864;2022-09-09T03:18:05;40.46;39.08;41.61;;
46749;Laerm;33775;47.992;11.864;2022-09-09T03:20:31;40.41;38.81;41.61;;
46749;Laerm;33775;47.992;11.864;2022-09-09T03:22:56;40.29;38.81;41.53;;
46749;Laerm;33775;47.992;11.864;2022-09-09T03:25:22;40.37;38.81;41.68;;
46749;Laerm;33775;47.992;11.864;2022-09-09T03:27:49;40.27;38.81;41.46;;
46749;Laerm;33775;47.992;11.864;2022-09-09T03:30:14;40.28;38.81;41.46;;
46749;Laerm;33775;47.992;11.864;2022-09-09T03:32:40;40.34;38.95;41.53;;
46749;Laerm;33775;47.992;11.864;2022-09-09T03:35:05;40.36;39.08;41.53;;
46749;Laerm;33775;47.992;11.864;2022-09-09T03:37:31;40.33;38.95;41.53;;
46749;Laerm;33775;47.992;11.864;2022-09-09T03:39:56;40.28;38.87;41.46;;
46749;Laerm;33775;47.992;11.864;2022-09-09T03:42:22;40.25;38.81;41.46;;
46749;Laerm;33775;47.992;11.864;2022-09-09T03:44:47;40.29;38.95;41.61;;
46749;Laerm;33775;47.992;11.864;2022-09-09T03:47:15;40.38;39.08;41.46;;
46749;Laerm;33775;47.992;11.864;2022-09-09T03:49:42;40.39;39.08;41.46;;
46749;Laerm;33775;47.992;11.864;2022-09-09T03:52:08;40.45;38.95;41.61;;
46749;Laerm;33775;47.992;11.864;2022-09-09T03:54:33;40.61;39.21;41.75;;
46749;Laerm;33775;47.992;11.864;2022-09-09T03:56:59;40.70;39.46;41.75;;
46749;Laerm;33775;47.992;11.864;2022-09-09T03:59:24;40.68;39.34;41.89;;
46749;Laerm;33775;47.992;11.864;2022-09-09T04:01:50;40.72;39.46;41.75;;
46749;Laerm;33775;47.992;11.864;2022-09-09T04:04:16;40.71;39.34;41.75;;
46749;Laerm;33775;47.992;11.864;2022-09-09T04:06:41;40.76;39.57;41.89;;
46749;Laerm;33775;47.992;11.864;2022-09-09T04:09:06;40.78;39.46;41.89;;
46749;Laerm;33775;47.992;11.864;2022-09-09T04:11:31;40.81;39.58;49.63;;
46749;Laerm;33775;47.992;11.864;2022-09-09T04:13:56;40.76;39.46;41.82;;
46749;Laerm;33775;47.992;11.864;2022-09-09T04:16:22;40.72;39.46;41.89;;
46749;Laerm;33775;47.992;11.864;2022-09-09T04:18:47;40.77;39.46;41.89;;
46749;Laerm;33775;47.992;11.864;2022-09-09T04:21:13;40.81;39.46;41.89;;
46749;Laerm;33775;47.992;11.864;2022-09-09T04:23:38;40.68;39.21;41.75;;
46749;Laerm;33775;47.992;11.864;2022-09-09T04:26:04;40.60;39.23;41.68;;
46749;Laerm;33775;47.992;11.864;2022-09-09T04:28:30;40.55;39.08;41.68;;
46749;Laerm;33775;47.992;11.864;2022-09-09T04:30:56;40.38;38.95;41.53;;
46749;Laerm;33775;47.992;11.864;2022-09-09T04:33:24;40.46;39.21;41.53;;
46749;Laerm;33775;47.992;11.864;2022-09-09T04:35:53;40.42;38.95;41.53;;
46749;Laerm;33775;47.992;11.864;2022-09-09T04:38:19;40.36;38.95;41.53;;
46749;Laerm;33775;47.992;11.864;2022-09-09T04:40:48;40.31;38.81;41.46;;
46749;Laerm;33775;47.992;11.864;2022-09-09T04:43:13;40.32;38.95;41.53;;
46749;Laerm;33775;47.992;11.864;2022-09-09T04:45:39;40.32;38.81;41.61;;
46749;Laerm;33775;47.992;11.864;2022-09-09T04:48:05;40.43;38.99;41.61;;
46749;Laerm;33775;47.992;11.864;2022-09-09T04:50:30;40.49;39.21;41.68;;
46749;Laerm;33775;47.992;11.864;2022-09-09T04:52:57;40.49;39.11;41.68;;
46749;Laerm;33775;47.992;11.864;2022-09-09T04:55:24;40.53;39.21;41.61;;
46749;Laerm;33775;47.992;11.864;2022-09-09T04:57:49;40.49;39.21;41.61;;
46749;Laerm;33775;47.992;11.864;2022-09-09T05:00:14;40.48;39.21;41.61;;
46749;Laerm;33775;47.992;11.864;2022-09-09T05:02:40;40.47;38.99;41.53;;
46749;Laerm;33775;47.992;11.864;2022-09-09T05:05:06;40.54;39.21;41.61;;
46749;Laerm;33775;47.992;11.864;2022-09-09T05:07:31;40.46;39.21;41.61;;
46749;Laerm;33775;47.992;11.864;2022-09-09T05:09:57;40.42;38.99;41.61;;
46749;Laerm;33775;47.992;11.864;2022-09-09T05:12:22;40.32;38.81;41.53;;
46749;Laerm;33775;47.992;11.864;2022-09-09T05:14:48;40.31;38.67;41.53;;
46749;Laerm;33775;47.992;11.864;2022-09-09T05:17:14;40.35;38.95;41.53;;
46749;Laerm;33775;47.992;11.864;2022-09-09T05:19:41;40.33;38.95;41.53;;
46749;Laerm;33775;47.992;11.864;2022-09-09T05:22:06;40.35;38.95;41.53;;
46749;Laerm;33775;47.992;11.864;2022-09-09T05:24:32;40.32;38.95;41.53;;
46749;Laerm;33775;47.992;11.864;2022-09-09T05:26:58;40.18;38.67;41.38;;
46749;Laerm;33775;47.992;11.864;2022-09-09T05:29:24;40.16;38.81;41.38;;
46749;Laerm;33775;47.992;11.864;2022-09-09T05:31:50;40.10;38.67;48.10;;
46749;Laerm;33775;47.992;11.864;2022-09-09T05:34:15;40.05;38.52;41.30;;
46749;Laerm;33775;47.992;11.864;2022-09-09T05:36:40;39.93;38.21;41.30;;
46749;Laerm;33775;47.992;11.864;2022-09-09T05:39:05;39.80;38.37;41.06;;
46749;Laerm;33775;47.992;11.864;2022-09-09T05:41:30;39.78;38.05;41.06;;
46749;Laerm;33775;47.992;11.864;2022-09-09T05:43:56;39.72;37.88;41.06;;
46749;Laerm;33775;47.992;11.864;2022-09-09T05:46:24;39.69;37.88;41.06;;
46749;Laerm;33775;47.992;11.864;2022-09-09T05:48:50;39.62;38.02;40.98;;
46749;Laerm;33775;47.992;11.864;2022-09-09T05:51:20;39.65;38.05;40.89;;
46749;Laerm;33775;47.992;11.864;2022-09-09T05:53:46;39.68;38.05;40.98;;
46749;Laerm;33775;47.992;11.864;2022-09-09T05:56:13;39.65;37.88;40.98;;
46749;Laerm;33775;47.992;11.864;2022-09-09T05:58:39;39.49;37.70;40.98;;
46749;Laerm;33775;47.992;11.864;2022-09-09T06:01:05;39.49;37.70;40.89;;
46749;Laerm;33775;47.992;11.864;2022-09-09T06:03:32;39.56;37.88;40.80;;
46749;Laerm;33775;47.992;11.864;2022-09-09T06:05:58;39.56;37.70;40.98;;
46749;Laerm;33775;47.992;11.864;2022-09-09T06:08:24;39.59;37.87;41.14;;
46749;Laerm;33775;47.992;11.864;2022-09-09T06:10:49;39.62;37.52;40.89;;
46749;Laerm;33775;47.992;11.864;2022-09-09T06:13:14;39.65;38.05;40.98;;
46749;Laerm;33775;47.992;11.864;2022-09-09T06:15:39;39.64;37.70;40.98;;
46749;Laerm;33775;47.992;11.864;2022-09-09T06:18:14;39.60;37.88;40.98;;
46749;Laerm;33775;47.992;11.864;2022-09-09T06:20:43;39.56;37.52;40.80;;
46749;Laerm;33775;47.992;11.864;2022-09-09T06:23:08;39.40;37.70;40.80;;
46749;Laerm;33775;47.992;11.864;2022-09-09T06:25:33;39.44;37.70;40.80;;
46749;Laerm;33775;47.992;11.864;2022-09-09T06:27:59;39.40;36.91;40.98;;
46749;Laerm;33775;47.992;11.864;2022-09-09T06:30:24;39.50;37.70;40.71;;
46749;Laerm;33775;47.992;11.864;2022-09-09T06:32:49;39.60;38.05;40.98;;
46749;Laerm;33775;47.992;11.864;2022-09-09T06:35:16;39.66;37.88;41.06;;
46749;Laerm;33775;47.992;11.864;2022-09-09T06:37:44;39.71;38.05;40.98;;
46749;Laerm;33775;47.992;11.864;2022-09-09T06:40:09;39.66;37.88;41.06;;
46749;Laerm;33775;47.992;11.864;2022-09-09T06:42:35;39.55;37.32;40.89;;
46749;Laerm;33775;47.992;11.864;2022-09-09T06:45:00;39.47;37.88;40.89;;
46749;Laerm;33775;47.992;11.864;2022-09-09T06:47:25;39.61;37.70;50.15;;
46749;Laerm;33775;47.992;11.864;2022-09-09T06:49:52;39.56;37.70;41.30;;
46749;Laerm;33775;47.992;11.864;2022-09-09T06:52:17;39.44;37.32;40.89;;
46749;Laerm;33775;47.992;11.864;2022-09-09T06:54:43;39.27;37.12;40.80;;
46749;Laerm;33775;47.992;11.864;2022-09-09T06:57:09;38.87;36.20;40.43;;
46749;Laerm;33775;47.992;11.864;2022-09-09T06:59:34;38.54;35.66;40.53;;
46749;Laerm;33775;47.992;11.864;2022-09-09T07:01:59;38.65;35.94;40.43;;
46749;Laerm;33775;47.992;11.864;2022-09-09T07:04:24;38.84;36.20;40.71;;
46749;Laerm;33775;47.992;11.864;2022-09-09T07:06:50;39.12;36.20;40.62;;
46749;Laerm;33775;47.992;11.864;2022-09-09T07:09:17;39.08;36.91;40.71;;
46749;Laerm;33775;47.992;11.864;2022-09-09T07:11:46;38.88;36.45;40.53;;
46749;Laerm;33775;47.992;11.864;2022-09-09T07:14:11;38.75;35.36;40.43;;
46749;Laerm;33775;47.992;11.864;2022-09-09T07:16:39;38.59;35.94;40.33;;
46749;Laerm;33775;47.992;11.864;2022-09-09T07:19:04;38.51;35.66;40.23;;
46749;Laerm;33775;47.992;11.864;2022-09-09T07:21:30;38.98;36.69;40.53;;
46749;Laerm;33775;47.992;11.864;2022-09-09T07:23:55;39.13;37.32;40.80;;
46749;Laerm;33775;47.992;11.864;2022-09-09T07:26:23;39.05;36.91;40.62;;
46749;Laerm;33775;47.992;11.864;2022-09-09T07:28:48;39.05;36.91;40.62;;
46749;Laerm;33775;47.992;11.864;2022-09-09T07:31:15;38.62;35.36;40.33;;
46749;Laerm;33775;47.992;11.864;2022-09-09T07:33:41;38.40;34.69;40.13;;
46749;Laerm;33775;47.992;11.864;2022-09-09T07:36:17;38.21;34.31;40.13;;
46749;Laerm;33775;47.992;11.864;2022-09-09T07:38:44;38.20;34.69;39.92;;
46749;Laerm;33775;47.992;11.864;2022-09-09T07:41:11;38.28;31.68;40.33;;
46749;Laerm;33775;47.992;11.864;2022-09-09T07:43:44;38.23;33.44;40.53;;
46749;Laerm;33775;47.992;11.864;2022-09-09T07:46:10;38.31;35.04;40.13;;
46749;Laerm;33775;47.992;11.864;2022-09-09T07:48:36;38.13;33.90;40.03;;
46749;Laerm;33775;47.992;11.864;2022-09-09T07:51:12;38.37;34.31;40.13;;
46749;Laerm;33775;47.992;11.864;2022-09-09T07:53:43;38.91;36.69;40.43;;
46749;Laerm;33775;47.992;11.864;2022-09-09T07:56:10;38.93;36.91;40.33;;
46749;Laerm;33775;47.992;11.864;2022-09-09T07:58:38;38.95;37.12;40.53;;
46749;Laerm;33775;47.992;11.864;2022-09-09T08:01:12;38.37;33.44;40.03;;
46749;Laerm;33775;47.992;11.864;2022-09-09T08:03:37;38.03;33.44;40.23;;
46749;Laerm;33775;47.992;11.864;2022-09-09T08:06:04;37.58;31.68;39.70;;
46749;Laerm;33775;47.992;11.864;2022-09-09T08:08:29;37.30;31.68;39.81;;
46749;Laerm;33775;47.992;11.864;2022-09-09T08:11:01;37.15;31.68;40.23;;
46749;Laerm;33775;47.992;11.864;2022-09-09T08:13:26;37.83;31.68;41.22;;
46749;Laerm;33775;47.992;11.864;2022-09-09T08:15:52;45.31;38.67;76.69;;
46749;Laerm;33775;47.992;11.864;2022-09-09T08:18:17;41.34;40.13;42.29;;
46749;Laerm;33775;47.992;11.864;2022-09-09T08:20:42;41.39;40.13;44.76;;
46749;Laerm;33775;47.992;11.864;2022-09-09T08:23:07;41.24;38.05;42.53;;
46749;Laerm;33775;47.992;11.864;2022-09-09T08:25:32;39.76;37.88;41.22;;
46749;Laerm;33775;47.992;11.864;2022-09-09T08:27:59;38.64;32.93;40.53;;
46749;Laerm;33775;47.992;11.864;2022-09-09T08:30:24;37.90;33.44;39.70;;
46749;Laerm;33775;47.992;11.864;2022-09-09T08:32:49;37.39;31.68;39.58;;
46749;Laerm;33775;47.992;11.864;2022-09-09T08:35:16;37.43;31.68;39.81;;
46749;Laerm;33775;47.992;11.864;2022-09-09T08:37:42;37.69;32.00;39.70;;
46749;Laerm;33775;47.992;11.864;2022-09-09T08:40:08;37.46;32.93;39.78;;
46749;Laerm;33775;47.992;11.864;2022-09-09T08:42:43;37.19;32.35;39.70;;
46749;Laerm;33775;47.992;11.864;2022-09-09T08:45:14;37.18;28.67;39.58;;
46749;Laerm;33775;47.992;11.864;2022-09-09T08:50:31;37.19;28.67;39.58;;
46749;Laerm;33775;47.992;11.864;2022-09-09T08:58:04;37.38;30.89;39.81;;
46749;Laerm;33775;47.992;11.864;2022-09-09T09:00:36;37.50;31.68;39.92;;
46749;Laerm;33775;47.992;11.864;2022-09-09T09:03:09;37.52;30.89;39.92;;
46749;Laerm;33775;47.992;11.864;2022-09-09T09:05:42;37.52;32.93;40.13;;
46749;Laerm;33775;47.992;11.864;2022-09-09T09:10:39;37.51;26.91;39.70;;
46749;Laerm;33775;47.992;11.864;2022-09-09T09:15:58;37.83;32.35;40.03;;
46749;Laerm;33775;47.992;11.864;2022-09-09T09:18:25;37.96;32.35;39.81;;
46749;Laerm;33775;47.992;11.864;2022-09-09T09:23:24;38.36;33.44;40.03;;
46749;Laerm;33775;47.992;11.864;2022-09-09T09:25:50;38.58;36.20;40.27;;
46749;Laerm;33775;47.992;11.864;2022-09-09T09:28:18;38.77;36.45;40.53;;
46749;Laerm;33775;47.992;11.864;2022-09-09T09:30:51;38.98;36.20;40.62;;
46749;Laerm;33775;47.992;11.864;2022-09-09T09:33:26;39.07;36.69;40.62;;
46749;Laerm;33775;47.992;11.864;2022-09-09T09:35:53;39.11;37.12;40.53;;
46749;Laerm;33775;47.992;11.864;2022-09-09T09:38:25;39.03;36.91;40.62;;
46749;Laerm;33775;47.992;11.864;2022-09-09T09:40:52;39.03;36.69;40.43;;
46749;Laerm;33775;47.992;11.864;2022-09-09T09:43:22;38.94;36.69;40.43;;
46749;Laerm;33775;47.992;11.864;2022-09-09T09:45:48;38.86;36.20;40.53;;
46749;Laerm;33775;47.992;11.864;2022-09-09T09:48:13;38.76;36.20;40.33;;
46749;Laerm;33775;47.992;11.864;2022-09-09T09:50:49;38.74;36.69;40.23;;
46749;Laerm;33775;47.992;11.864;2022-09-09T09:53:16;38.87;35.94;40.33;;
46749;Laerm;33775;47.992;11.864;2022-09-09T09:55:46;38.97;36.34;40.53;;
46749;Laerm;33775;47.992;11.864;2022-09-09T09:58:15;39.12;36.91;40.62;;
46749;Laerm;33775;47.992;11.864;2022-09-09T10:00:47;39.13;36.91;40.62;;
46749;Laerm;33775;47.992;11.864;2022-09-09T10:03:18;39.08;36.69;47.74;;
46749;Laerm;33775;47.992;11.864;2022-09-09T10:05:46;39.18;36.91;46.59;;
46749;Laerm;33775;47.992;11.864;2022-09-09T10:08:13;39.08;35.94;40.53;;
46749;Laerm;33775;47.992;11.864;2022-09-09T10:10:45;38.94;36.91;40.43;;
46749;Laerm;33775;47.992;11.864;2022-09-09T10:13:17;39.01;36.91;40.62;;
46749;Laerm;33775;47.992;11.864;2022-09-09T10:21:20;38.04;33.90;40.18;;
46749;Laerm;33775;47.992;11.864;2022-09-09T10:31:54;37.65;32.35;39.70;;
46749;Laerm;33775;47.992;11.864;2022-09-09T10:36:49;37.37;32.35;40.80;;
46749;Laerm;33775;47.992;11.864;2022-09-09T10:56:58;37.44;32.00;47.70;;
46749;Laerm;33775;47.992;11.864;2022-09-09T10:59:25;37.36;32.35;47.32;;
46749;Laerm;33775;47.992;11.864;2022-09-09T11:01:57;37.73;31.68;40.03;;
46749;Laerm;33775;47.992;11.864;2022-09-09T11:04:35;37.94;32.93;39.70;;
46749;Laerm;33775;47.992;11.864;2022-09-09T11:07:08;37.59;29.92;39.70;;
46749;Laerm;33775;47.992;11.864;2022-09-09T11:09:47;37.30;28.67;39.92;;
46749;Laerm;33775;47.992;11.864;2022-09-09T11:12:18;37.18;32.35;39.92;;
46749;Laerm;33775;47.992;11.864;2022-09-09T11:14:52;37.15;31.68;40.71;;
46749;Laerm;33775;47.992;11.864;2022-09-09T11:17:24;37.12;29.92;40.53;;
46749;Laerm;33775;47.992;11.864;2022-09-09T11:19:50;37.05;30.89;39.81;;
46749;Laerm;33775;47.992;11.864;2022-09-09T11:22:27;36.98;31.68;39.58;;
46749;Laerm;33775;47.992;11.864;2022-09-09T11:24:56;36.96;29.92;39.81;;
46749;Laerm;33775;47.992;11.864;2022-09-09T11:27:26;36.91;30.54;39.46;;
46749;Laerm;33775;47.992;11.864;2022-09-09T11:29:59;36.86;26.91;39.58;;
46749;Laerm;33775;47.992;11.864;2022-09-09T11:32:52;36.86;31.68;39.58;;
46749;Laerm;33775;47.992;11.864;2022-09-09T11:40:43;36.87;31.68;40.08;;
46749;Laerm;33775;47.992;11.864;2022-09-09T11:43:12;36.83;31.33;39.81;;
46749;Laerm;33775;47.992;11.864;2022-09-09T11:45:39;36.85;30.89;39.81;;
46749;Laerm;33775;47.992;11.864;2022-09-09T11:48:05;36.85;30.89;39.92;;
46749;Laerm;33775;47.992;11.864;2022-09-09T11:50:36;36.87;28.67;39.58;;
46749;Laerm;33775;47.992;11.864;2022-09-09T11:53:14;36.89;29.92;39.70;;
46749;Laerm;33775;47.992;11.864;2022-09-09T11:55:41;36.93;28.67;39.70;;
46749;Laerm;33775;47.992;11.864;2022-09-09T12:00:35;36.94;31.68;39.92;;
46749;Laerm;33775;47.992;11.864;2022-09-09T12:03:02;37.01;32.35;40.43;;
46749;Laerm;33775;47.992;11.864;2022-09-09T12:05:44;37.01;30.89;40.03;;
46749;Laerm;33775;47.992;11.864;2022-09-09T12:08:11;36.95;31.68;40.23;;
46749;Laerm;33775;47.992;11.864;2022-09-09T12:10:52;36.97;30.89;40.03;;
46749;Laerm;33775;47.992;11.864;2022-09-09T12:13:18;36.95;31.68;39.92;;
46749;Laerm;33775;47.992;11.864;2022-09-09T12:15:51;36.95;30.89;39.92;;
46749;Laerm;33775;47.992;11.864;2022-09-09T12:18:25;36.93;31.68;39.70;;
46749;Laerm;33775;47.992;11.864;2022-09-09T12:21:38;36.98;31.68;40.13;;
46749;Laerm;33775;47.992;11.864;2022-09-09T12:23:39;36.98;30.89;39.92;;
46749;Laerm;33775;47.992;11.864;2022-09-09T12:26:16;36.98;30.89;40.13;;
46749;Laerm;33775;47.992;11.864;2022-09-09T12:29:00;36.97;31.68;39.58;;
46749;Laerm;33775;47.992;11.864;2022-09-09T12:37:14;36.97;31.68;39.81;;
46749;Laerm;33775;47.992;11.864;2022-09-09T12:39:50;36.96;31.68;40.03;;
46749;Laerm;33775;47.992;11.864;2022-09-09T12:42:17;36.96;30.89;39.92;;
46749;Laerm;33775;47.992;11.864;2022-09-09T12:44:50;36.97;31.68;39.81;;
46749;Laerm;33775;47.992;11.864;2022-09-09T12:47:15;36.97;30.89;40.03;;
46749;Laerm;33775;47.992;11.864;2022-09-09T12:49:40;36.97;30.89;39.92;;
46749;Laerm;33775;47.992;11.864;2022-09-09T12:54:43;36.96;30.89;40.03;;
46749;Laerm;33775;47.992;11.864;2022-09-09T12:57:10;36.97;28.67;39.58;;
46749;Laerm;33775;47.992;11.864;2022-09-09T12:59:37;36.98;31.68;39.92;;
46749;Laerm;33775;47.992;11.864;2022-09-09T13:02:10;36.99;31.68;39.81;;
46749;Laerm;33775;47.992;11.864;2022-09-09T13:04:36;36.96;31.68;40.03;;
46749;Laerm;33775;47.992;11.864;2022-09-09T13:07:07;36.98;31.68;39.58;;
46749;Laerm;33775;47.992;11.864;2022-09-09T13:09:34;36.96;31.68;39.92;;
46749;Laerm;33775;47.992;11.864;2022-09-09T13:12:00;36.99;29.92;39.81;;
46749;Laerm;33775;47.992;11.864;2022-09-09T13:14:28;36.97;30.89;40.03;;
46749;Laerm;33775;47.992;11.864;2022-09-09T13:16:58;36.98;29.92;39.92;;
46749;Laerm;33775;47.992;11.864;2022-09-09T13:19:23;36.97;32.35;39.81;;
46749;Laerm;33775;47.992;11.864;2022-09-09T13:21:52;36.96;30.89;40.03;;
46749;Laerm;33775;47.992;11.864;2022-09-09T13:24:29;36.97;31.68;39.81;;
46749;Laerm;33775;47.992;11.864;2022-09-09T13:26:55;36.99;30.89;39.70;;
46749;Laerm;33775;47.992;11.864;2022-09-09T13:29:21;36.99;28.67;39.81;;
46749;Laerm;33775;47.992;11.864;2022-09-09T13:31:46;36.98;30.89;39.81;;
46749;Laerm;33775;47.992;11.864;2022-09-09T13:36:52;37.00;31.68;40.23;;
46749;Laerm;33775;47.992;11.864;2022-09-09T13:39:19;36.98;32.35;40.03;;
46749;Laerm;33775;47.992;11.864;2022-09-09T13:41:45;37.00;32.35;40.03;;
46749;Laerm;33775;47.992;11.864;2022-09-09T13:44:46;37.00;32.35;40.13;;
46749;Laerm;33775;47.992;11.864;2022-09-09T13:47:05;36.98;31.68;39.81;;
46749;Laerm;33775;47.992;11.864;2022-09-09T13:49:31;37.00;31.68;40.13;;
46749;Laerm;33775;47.992;11.864;2022-09-09T13:54:30;37.01;32.35;39.92;;
46749;Laerm;33775;47.992;11.864;2022-09-09T13:56:55;36.99;30.89;39.89;;
46749;Laerm;33775;47.992;11.864;2022-09-09T13:59:21;37.00;32.35;40.13;;
46749;Laerm;33775;47.992;11.864;2022-09-09T14:01:46;36.96;31.68;39.58;;
46749;Laerm;33775;47.992;11.864;2022-09-09T14:04:12;37.02;30.89;39.81;;
46749;Laerm;33775;47.992;11.864;2022-09-09T14:06:37;37.01;30.89;39.92;;
46749;Laerm;33775;47.992;11.864;2022-09-09T14:09:04;37.02;29.92;39.81;;
46749;Laerm;33775;47.992;11.864;2022-09-09T14:11:30;36.99;28.67;39.92;;
46749;Laerm;33775;47.992;11.864;2022-09-09T14:13:55;36.99;31.68;39.92;;
46749;Laerm;33775;47.992;11.864;2022-09-09T14:16:20;37.01;30.89;40.13;;
46749;Laerm;33775;47.992;11.864;2022-09-09T14:18:46;36.99;31.68;40.23;;
46749;Laerm;33775;47.992;11.864;2022-09-09T14:21:12;37.00;29.92;39.81;;
46749;Laerm;33775;47.992;11.864;2022-09-09T14:23:37;37.02;31.68;39.92;;
46749;Laerm;33775;47.992;11.864;2022-09-09T14:26:03;36.99;32.35;39.92;;
46749;Laerm;33775;47.992;11.864;2022-09-09T14:28:28;36.99;28.67;39.70;;
46749;Laerm;33775;47.992;11.864;2022-09-09T14:30:54;37.01;29.92;40.03;;
46749;Laerm;33775;47.992;11.864;2022-09-09T14:33:19;36.99;31.68;39.70;;
46749;Laerm;33775;47.992;11.864;2022-09-09T14:35:45;37.02;29.92;40.43;;
46749;Laerm;33775;47.992;11.864;2022-09-09T14:38:10;37.03;30.89;40.53;;
46749;Laerm;33775;47.992;11.864;2022-09-09T14:40:36;37.00;31.68;40.03;;
46749;Laerm;33775;47.992;11.864;2022-09-09T14:43:02;37.04;32.35;39.92;;
46749;Laerm;33775;47.992;11.864;2022-09-09T14:45:27;36.99;31.68;39.70;;
46749;Laerm;33775;47.992;11.864;2022-09-09T14:47:52;37.00;32.35;39.81;;
46749;Laerm;33775;47.992;11.864;2022-09-09T14:50:18;37.03;32.35;40.23;;
46749;Laerm;33775;47.992;11.864;2022-09-09T14:52:44;36.99;31.68;39.92;;
46749;Laerm;33775;47.992;11.864;2022-09-09T14:55:09;37.01;32.35;39.92;;
46749;Laerm;33775;47.992;11.864;2022-09-09T14:57:34;37.00;31.68;40.03;;
46749;Laerm;33775;47.992;11.864;2022-09-09T15:00:01;37.00;30.89;39.70;;
46749;Laerm;33775;47.992;11.864;2022-09-09T15:02:27;37.01;31.68;40.13;;
46749;Laerm;33775;47.992;11.864;2022-09-09T15:04:52;37.02;31.68;39.92;;
46749;Laerm;33775;47.992;11.864;2022-09-09T15:07:18;36.95;32.35;40.03;;
46749;Laerm;33775;47.992;11.864;2022-09-09T15:09:44;36.98;30.89;40.13;;
46749;Laerm;33775;47.992;11.864;2022-09-09T15:12:10;36.99;30.54;40.13;;
46749;Laerm;33775;47.992;11.864;2022-09-09T15:14:35;36.92;29.92;39.92;;
46749;Laerm;33775;47.992;11.864;2022-09-09T15:17:01;36.95;32.35;39.81;;
46749;Laerm;33775;47.992;11.864;2022-09-09T15:19:26;36.93;30.89;39.81;;
46749;Laerm;33775;47.992;11.864;2022-09-09T15:21:51;36.95;31.68;39.81;;
46749;Laerm;33775;47.992;11.864;2022-09-09T15:24:16;36.94;32.00;39.58;;
46749;Laerm;33775;47.992;11.864;2022-09-09T15:26:41;36.89;30.89;39.92;;